Aviation Digital Data Service (ADDS)

Output produced by METARs form (1954 UTC 22 November 2017)
found at http://aviationweather.gov/adds/metars/
 
KISO 221746Z 2218/2318 33013G19KT P6SM SCT050 
     FM222200 01007KT P6SM FEW250 AMD LTD TO CLD VIS AND WIND